createdAt,value
2022-08-26T00:03:02.093Z,99804.19
2022-08-26T00:08:04.232Z,99803.81
2022-08-26T00:13:06.982Z,99794.91
2022-08-26T00:18:16.759Z,99798.09
2022-08-26T00:23:24.454Z,99808.75
2022-08-26T00:28:26.132Z,99808.13
2022-08-26T00:33:27.471Z,99805.41
2022-08-26T00:38:28.914Z,99806.09
2022-08-26T00:43:46.199Z,99810.53
2022-08-26T00:48:53.875Z,99800.34
2022-08-26T00:54:01.954Z,99799.97
2022-08-26T00:59:08.270Z,99804.22
2022-08-26T01:04:11.731Z,99798.81
2022-08-26T01:09:13.282Z,99796.69
2022-08-26T01:14:16.911Z,99795.88
2022-08-26T01:19:37.430Z,99787.09
2022-08-26T01:24:41.611Z,99789.66
2022-08-26T01:29:45.185Z,99789.31
2022-08-26T01:34:48.225Z,99798.16
2022-08-26T01:39:52.117Z,99806.13
2022-08-26T01:45:05.229Z,99809.16
2022-08-26T01:50:11.201Z,99810.56
2022-08-26T01:55:15.198Z,99805.59
2022-08-26T02:00:35.622Z,99810.34
2022-08-26T02:05:37.512Z,99809.53
2022-08-26T02:10:38.892Z,99802.41
2022-08-26T02:15:44.346Z,99803.50
2022-08-26T02:20:46.306Z,99798.94
2022-08-26T02:26:03.455Z,99805.44
2022-08-26T02:31:05.205Z,99810.09
2022-08-26T02:36:09.409Z,99810.53
2022-08-26T02:41:13.701Z,99807.84
2022-08-26T02:46:21.583Z,99798.00
2022-08-26T02:51:31.254Z,99800.50
2022-08-26T02:56:35.311Z,99808.88
2022-08-26T03:01:37.734Z,99803.44
2022-08-26T03:06:40.737Z,99791.53
2022-08-26T03:11:42.909Z,99801.34
2022-08-26T03:16:45.026Z,99797.84
2022-08-26T03:21:50.464Z,99798.44
2022-08-26T03:26:53.821Z,99796.38
2022-08-26T03:31:55.546Z,99789.84
2022-08-26T03:36:56.891Z,99794.25
2022-08-26T03:41:58.801Z,99777.16
2022-08-26T03:47:00.154Z,99793.09
2022-08-26T03:52:03.313Z,99786.88
2022-08-26T03:57:05.180Z,99782.72
2022-08-26T04:02:11.337Z,99784.38
2022-08-26T04:07:13.137Z,99795.63
2022-08-26T04:12:14.433Z,99790.16
2022-08-26T04:17:15.804Z,99791.81
2022-08-26T04:22:24.818Z,99780.94
2022-08-26T04:27:26.448Z,99777.59
2022-08-26T04:32:28.481Z,99785.75
2022-08-26T04:37:31.150Z,99789.75
2022-08-26T04:42:34.267Z,99793.09
2022-08-26T04:47:35.636Z,99788.47
2022-08-26T04:52:37.264Z,99784.72
2022-08-26T04:57:38.730Z,99799.31
2022-08-26T05:02:41.105Z,99791.81
2022-08-26T05:07:44.551Z,99803.56
2022-08-26T05:12:45.950Z,99796.47
2022-08-26T05:17:47.692Z,99796.91
2022-08-26T05:22:49.266Z,99798.75
2022-08-26T05:27:52.909Z,99804.78
2022-08-26T05:32:55.478Z,99810.28
2022-08-26T05:37:56.831Z,99819.88
2022-08-26T05:43:00.171Z,99822.19
2022-08-26T05:48:03.876Z,99829.97
2022-08-26T05:53:09.251Z,99826.63
2022-08-26T05:58:11.986Z,99824.41
2022-08-26T06:03:13.366Z,99825.06
2022-08-26T06:08:14.787Z,99823.16
2022-08-26T06:13:18.262Z,99836.75
2022-08-26T06:18:36.238Z,99836.38
2022-08-26T06:23:56.319Z,99830.88
2022-08-26T06:28:58.554Z,99835.63
2022-08-26T06:34:01.290Z,99846.50
2022-08-26T06:39:06.097Z,99845.69
2022-08-26T06:44:07.798Z,99861.75
2022-08-26T06:49:10.069Z,99849.59
2022-08-26T06:54:11.773Z,99851.63
2022-08-26T06:59:13.133Z,99856.31
2022-08-26T07:04:22.106Z,99850.63
2022-08-26T07:09:27.846Z,99856.44
2022-08-26T07:14:29.221Z,99859.03
2022-08-26T07:19:31.744Z,99854.34
2022-08-26T07:24:35.496Z,99849.97
2022-08-26T07:29:39.320Z,99845.06
2022-08-26T07:34:42.200Z,99846.19
2022-08-26T07:39:44.221Z,99847.34
2022-08-26T07:44:45.873Z,99841.66
2022-08-26T07:49:47.189Z,99837.97
2022-08-26T07:54:58.721Z,99843.44
2022-08-26T08:00:00.918Z,99847.59
2022-08-26T08:05:02.322Z,99842.31
2022-08-26T08:10:09.617Z,99849.06
2022-08-26T08:15:13.835Z,99850.63
2022-08-26T08:20:15.285Z,99851.06
2022-08-26T08:25:16.634Z,99845.88
2022-08-26T08:30:23.019Z,99850.50
2022-08-26T08:35:26.265Z,99851.16
2022-08-26T08:40:27.904Z,99842.91
2022-08-26T08:45:37.115Z,99842.34
2022-08-26T08:50:48.970Z,99838.81
2022-08-26T08:55:59.129Z,99825.34
2022-08-26T09:01:04.674Z,99836.06
2022-08-26T09:06:17.359Z,99835.66
2022-08-26T09:11:20.378Z,99839.72
2022-08-26T09:16:32.011Z,99836.63
2022-08-26T09:21:33.749Z,99834.41
2022-08-26T09:26:45.820Z,99840.44
2022-08-26T09:31:48.870Z,99836.88
2022-08-26T09:36:58.280Z,99835.81
2022-08-26T09:42:22.307Z,99826.22
2022-08-26T09:47:31.827Z,99822.66
2022-08-26T09:52:33.413Z,99814.47
2022-08-26T09:57:43.838Z,99814.81
2022-08-26T10:02:47.770Z,99812.03
2022-08-26T10:07:50.864Z,99797.28
2022-08-26T10:13:04.865Z,99792.63
2022-08-26T10:18:14.166Z,99785.00
2022-08-26T10:23:21.438Z,99775.56
2022-08-26T10:28:44.282Z,99774.94
2022-08-26T10:33:45.950Z,99761.19
2022-08-26T10:38:48.380Z,99756.72
2022-08-26T10:43:58.801Z,99750.97
2022-08-26T10:49:06.519Z,99744.41
2022-08-26T10:54:21.469Z,99738.25
2022-08-26T10:59:50.707Z,99741.78
2022-08-26T11:05:14.630Z,99739.59
2022-08-26T11:10:16.460Z,99725.75
2022-08-26T11:15:24.697Z,99727.59
2022-08-26T11:20:45.872Z,99723.88
2022-08-26T11:26:16.473Z,99721.50
2022-08-26T11:31:39.274Z,99716.72
2022-08-26T11:36:42.973Z,99711.66
2022-08-26T11:41:47.130Z,99702.03
2022-08-26T11:46:53.880Z,99704.50
2022-08-26T11:52:20.889Z,99698.19
2022-08-26T11:57:22.868Z,99692.19
2022-08-26T12:02:25.106Z,99692.66
2022-08-26T12:07:29.339Z,99691.72
2022-08-26T12:12:40.262Z,99696.94
2022-08-26T12:17:42.603Z,99696.41
2022-08-26T12:22:48.089Z,99691.50
2022-08-26T12:27:53.752Z,99682.75
2022-08-26T12:33:22.288Z,99670.75
2022-08-26T12:38:26.830Z,99658.66
2022-08-26T12:43:37.459Z,99658.66
2022-08-26T12:48:42.501Z,99643.81
2022-08-26T12:53:44.125Z,99652.06
2022-08-26T12:58:59.440Z,99655.34
2022-08-26T13:04:00.761Z,99657.00
2022-08-26T13:09:24.859Z,99647.59
2022-08-26T13:14:26.213Z,99643.09
2022-08-26T13:19:28.002Z,99626.72
2022-08-26T13:24:38.486Z,99620.16
2022-08-26T13:29:40.229Z,99617.72
2022-08-26T13:34:42.367Z,99614.69
2022-08-26T13:39:43.796Z,99608.34
2022-08-26T13:44:45.216Z,99593.91
2022-08-26T13:49:46.824Z,99590.88
2022-08-26T13:54:48.588Z,99592.06
2022-08-26T13:59:51.704Z,99591.69
2022-08-26T14:04:54.706Z,99609.75
2022-08-26T14:09:56.290Z,99631.00
2022-08-26T14:14:57.645Z,99632.78
2022-08-26T14:19:59.178Z,99631.97
2022-08-26T14:25:00.809Z,99631.38
2022-08-26T14:30:05.163Z,99639.38
2022-08-26T14:35:17.823Z,99643.09
2022-08-26T14:40:22.033Z,99630.13
2022-08-26T14:45:26.221Z,99623.22
2022-08-26T14:50:27.830Z,99624.22
2022-08-26T14:55:32.299Z,99632.44
2022-08-26T15:00:39.946Z,99622.47
2022-08-26T15:05:48.000Z,99621.38
2022-08-26T15:10:50.697Z,99624.22
2022-08-26T15:15:52.089Z,99634.44
2022-08-26T15:20:53.516Z,99636.44
2022-08-26T15:25:54.905Z,99623.03
2022-08-26T15:31:08.163Z,99630.50
2022-08-26T15:36:10.607Z,99643.47
2022-08-26T15:41:12.302Z,99637.19
2022-08-26T15:46:13.847Z,99638.78
2022-08-26T15:51:33.851Z,99642.50
2022-08-26T15:56:37.382Z,99636.50
2022-08-26T16:01:40.336Z,99645.75
2022-08-26T16:06:43.242Z,99637.56
2022-08-26T16:11:44.601Z,99627.75
2022-08-26T16:16:47.019Z,99627.28
2022-08-26T16:21:50.629Z,99646.66
2022-08-26T16:26:52.054Z,99649.03
2022-08-26T16:31:54.524Z,99659.50
2022-08-26T16:36:55.871Z,99669.31
2022-08-26T16:41:57.200Z,99679.69
2022-08-26T16:46:58.911Z,99679.34
2022-08-26T16:52:00.268Z,99674.00
2022-08-26T16:57:02.086Z,99678.28
2022-08-26T17:02:03.836Z,99679.84
2022-08-26T17:07:05.861Z,99685.50
2022-08-26T17:12:07.496Z,99694.44
2022-08-26T17:17:08.902Z,99694.03
2022-08-26T17:22:10.981Z,99709.78
2022-08-26T17:27:12.367Z,99710.13
2022-08-26T17:32:13.723Z,99702.84
2022-08-26T17:37:15.071Z,99694.59
2022-08-26T17:42:18.725Z,99709.94
2022-08-26T17:47:20.111Z,99717.38
2022-08-26T17:52:21.497Z,99726.25
2022-08-26T17:57:23.792Z,99727.75
2022-08-26T18:02:25.176Z,99738.97
2022-08-26T18:07:26.603Z,99748.16
2022-08-26T18:12:27.980Z,99752.72
2022-08-26T18:17:30.125Z,99752.63
2022-08-26T18:22:31.429Z,99753.47
2022-08-26T18:27:33.034Z,99750.63
2022-08-26T18:32:35.318Z,99758.94
2022-08-26T18:37:37.408Z,99764.19
2022-08-26T18:42:53.947Z,99758.66
2022-08-26T18:47:55.654Z,99764.56
2022-08-26T18:52:57.034Z,99766.47
2022-08-26T18:57:58.554Z,99771.44
2022-08-26T19:02:59.935Z,99773.78
2022-08-26T19:08:02.342Z,99779.13
2022-08-26T19:13:04.957Z,99774.72
2022-08-26T19:18:09.706Z,99785.03
2022-08-26T19:23:30.378Z,99790.09
2022-08-26T19:28:33.322Z,99814.13
2022-08-26T19:33:34.639Z,99815.28
2022-08-26T19:38:36.037Z,99822.63
2022-08-26T19:43:40.013Z,99843.38
2022-08-26T19:48:45.650Z,99848.81
2022-08-26T19:53:49.510Z,99840.78
2022-08-26T19:59:00.546Z,99834.59
2022-08-26T20:04:04.241Z,99827.66
2022-08-26T20:09:05.559Z,99820.41
2022-08-26T20:14:11.374Z,99821.91
2022-08-26T20:19:37.488Z,99813.06
2022-08-26T20:24:39.183Z,99816.47
2022-08-26T20:29:43.272Z,99824.19
2022-08-26T20:34:45.697Z,99821.47
2022-08-26T20:39:48.169Z,99831.31
2022-08-26T20:44:55.124Z,99843.72
2022-08-26T20:49:56.575Z,99842.97
2022-08-26T20:55:06.145Z,99847.47
2022-08-26T21:00:08.082Z,99847.94
2022-08-26T21:05:10.470Z,99855.09
2022-08-26T21:10:12.488Z,99852.03
2022-08-26T21:15:14.274Z,99859.47
2022-08-26T21:20:18.524Z,99854.03
2022-08-26T21:25:22.727Z,99854.78
2022-08-26T21:30:24.058Z,99865.34
2022-08-26T21:35:25.364Z,99858.09
2022-08-26T21:40:27.896Z,99866.28
2022-08-26T21:45:29.367Z,99869.91
2022-08-26T21:50:30.730Z,99868.09
2022-08-26T21:55:35.606Z,99878.38
2022-08-26T22:00:36.915Z,99874.88
2022-08-26T22:05:45.934Z,99876.09
2022-08-26T22:10:52.620Z,99877.84
2022-08-26T22:15:54.283Z,99866.88
2022-08-26T22:20:58.071Z,99873.31
2022-08-26T22:25:59.925Z,99880.97
2022-08-26T22:31:01.872Z,99881.69
2022-08-26T22:36:03.362Z,99884.84
2022-08-26T22:41:08.430Z,99881.56
2022-08-26T22:46:10.584Z,99881.75
2022-08-26T22:51:12.220Z,99889.84
2022-08-26T22:56:14.402Z,99875.78
2022-08-26T23:01:16.869Z,99887.13
2022-08-26T23:06:18.366Z,99887.91
2022-08-26T23:11:19.661Z,99908.03
2022-08-26T23:16:21.209Z,99902.38
2022-08-26T23:21:22.588Z,99900.97
2022-08-26T23:26:24.005Z,99905.56
2022-08-26T23:31:25.440Z,99895.53
2022-08-26T23:36:26.813Z,99899.59
2022-08-26T23:41:28.276Z,99908.56
2022-08-26T23:46:29.622Z,99908.50
2022-08-26T23:51:50.082Z,99909.75
2022-08-26T23:56:51.415Z,99899.09
